sensor_id;sensor_type;location;lat;lon;timestamp;P1;durP1;ratioP1;P2;durP2;ratioP2
64716;SDS011;51146;50.274;19.000;2022-09-21T00:03:31;19.38;;;11.13;;
64716;SDS011;51146;50.274;19.000;2022-09-21T00:06:04;17.35;;;11.40;;
64716;SDS011;51146;50.274;19.000;2022-09-21T00:08:32;16.85;;;10.32;;
64716;SDS011;51146;50.274;19.000;2022-09-21T00:10:59;17.25;;;11.40;;
64716;SDS011;51146;50.274;19.000;2022-09-21T00:13:26;15.05;;;11.48;;
64716;SDS011;51146;50.274;19.000;2022-09-21T00:15:56;14.80;;;10.70;;
64716;SDS011;51146;50.274;19.000;2022-09-21T00:18:23;17.00;;;11.38;;
64716;SDS011;51146;50.274;19.000;2022-09-21T00:20:50;16.50;;;10.90;;
64716;SDS011;51146;50.274;19.000;2022-09-21T00:23:18;18.52;;;11.02;;
64716;SDS011;51146;50.274;19.000;2022-09-21T00:25:45;14.88;;;10.70;;
64716;SDS011;51146;50.274;19.000;2022-09-21T00:28:12;17.55;;;11.55;;
64716;SDS011;51146;50.274;19.000;2022-09-21T00:30:39;16.63;;;12.07;;
64716;SDS011;51146;50.274;19.000;2022-09-21T00:33:05;15.95;;;10.48;;
64716;SDS011;51146;50.274;19.000;2022-09-21T00:35:33;17.00;;;11.07;;
64716;SDS011;51146;50.274;19.000;2022-09-21T00:38:00;14.77;;;11.30;;
64716;SDS011;51146;50.274;19.000;2022-09-21T00:40:28;14.95;;;10.85;;
64716;SDS011;51146;50.274;19.000;2022-09-21T00:43:14;16.58;;;11.48;;
64716;SDS011;51146;50.274;19.000;2022-09-21T00:45:43;15.77;;;11.02;;
64716;SDS011;51146;50.274;19.000;2022-09-21T00:48:12;15.90;;;11.05;;
64716;SDS011;51146;50.274;19.000;2022-09-21T00:50:43;16.80;;;10.40;;
64716;SDS011;51146;50.274;19.000;2022-09-21T00:53:14;15.88;;;10.68;;
64716;SDS011;51146;50.274;19.000;2022-09-21T00:55:46;11.55;;;9.38;;
64716;SDS011;51146;50.274;19.000;2022-09-21T00:58:19;14.02;;;9.55;;
64716;SDS011;51146;50.274;19.000;2022-09-21T01:00:50;15.38;;;10.23;;
64716;SDS011;51146;50.274;19.000;2022-09-21T01:03:17;11.77;;;9.57;;
64716;SDS011;51146;50.274;19.000;2022-09-21T01:05:44;12.95;;;9.07;;
64716;SDS011;51146;50.274;19.000;2022-09-21T01:08:11;13.70;;;8.82;;
64716;SDS011;51146;50.274;19.000;2022-09-21T01:13:24;15.25;;;9.80;;
64716;SDS011;51146;50.274;19.000;2022-09-21T01:19:06;13.82;;;9.77;;
64716;SDS011;51146;50.274;19.000;2022-09-21T01:24:45;14.50;;;11.30;;
64716;SDS011;51146;50.274;19.000;2022-09-21T01:27:39;17.40;;;11.15;;
64716;SDS011;51146;50.274;19.000;2022-09-21T01:30:12;18.45;;;11.02;;
64716;SDS011;51146;50.274;19.000;2022-09-21T01:32:49;14.75;;;10.38;;
64716;SDS011;51146;50.274;19.000;2022-09-21T01:35:27;14.48;;;9.88;;
64716;SDS011;51146;50.274;19.000;2022-09-21T01:38:08;16.33;;;10.38;;
64716;SDS011;51146;50.274;19.000;2022-09-21T01:40:41;15.25;;;10.05;;
64716;SDS011;51146;50.274;19.000;2022-09-21T01:43:12;14.82;;;10.25;;
64716;SDS011;51146;50.274;19.000;2022-09-21T01:45:44;13.27;;;10.48;;
64716;SDS011;51146;50.274;19.000;2022-09-21T01:48:15;12.93;;;10.77;;
64716;SDS011;51146;50.274;19.000;2022-09-21T01:50:51;15.40;;;11.00;;
64716;SDS011;51146;50.274;19.000;2022-09-21T01:53:22;13.15;;;9.82;;
64716;SDS011;51146;50.274;19.000;2022-09-21T01:56:00;13.50;;;9.98;;
64716;SDS011;51146;50.274;19.000;2022-09-21T01:58:38;12.32;;;10.00;;
64716;SDS011;51146;50.274;19.000;2022-09-21T02:01:14;14.73;;;10.27;;
64716;SDS011;51146;50.274;19.000;2022-09-21T02:03:51;12.68;;;10.40;;
64716;SDS011;51146;50.274;19.000;2022-09-21T02:06:23;14.25;;;10.80;;
64716;SDS011;51146;50.274;19.000;2022-09-21T02:08:53;13.48;;;10.68;;
64716;SDS011;51146;50.274;19.000;2022-09-21T02:11:20;13.52;;;11.02;;
64716;SDS011;51146;50.274;19.000;2022-09-21T02:13:48;14.93;;;11.25;;
64716;SDS011;51146;50.274;19.000;2022-09-21T02:16:24;12.77;;;11.40;;
64716;SDS011;51146;50.274;19.000;2022-09-21T02:19:09;16.10;;;12.25;;
64716;SDS011;51146;50.274;19.000;2022-09-21T02:25:06;14.38;;;11.63;;
64716;SDS011;51146;50.274;19.000;2022-09-21T02:30:19;16.85;;;14.20;;
64716;SDS011;51146;50.274;19.000;2022-09-21T02:32:59;15.60;;;13.23;;
64716;SDS011;51146;50.274;19.000;2022-09-21T02:35:38;19.85;;;15.00;;
64716;SDS011;51146;50.274;19.000;2022-09-21T02:38:17;21.73;;;15.52;;
64716;SDS011;51146;50.274;19.000;2022-09-21T02:40:49;19.77;;;15.85;;
64716;SDS011;51146;50.274;19.000;2022-09-21T02:43:36;19.13;;;15.63;;
64716;SDS011;51146;50.274;19.000;2022-09-21T02:46:14;19.83;;;14.93;;
64716;SDS011;51146;50.274;19.000;2022-09-21T02:48:50;19.92;;;14.57;;
64716;SDS011;51146;50.274;19.000;2022-09-21T02:51:22;15.88;;;13.88;;
64716;SDS011;51146;50.274;19.000;2022-09-21T02:53:54;17.60;;;14.30;;
64716;SDS011;51146;50.274;19.000;2022-09-21T02:56:23;17.45;;;14.80;;
64716;SDS011;51146;50.274;19.000;2022-09-21T02:58:52;21.27;;;15.60;;
64716;SDS011;51146;50.274;19.000;2022-09-21T03:01:22;17.83;;;14.68;;
64716;SDS011;51146;50.274;19.000;2022-09-21T03:03:52;19.40;;;15.30;;
64716;SDS011;51146;50.274;19.000;2022-09-21T03:06:19;12.80;;;11.40;;
64716;SDS011;51146;50.274;19.000;2022-09-21T03:08:45;14.73;;;11.77;;
64716;SDS011;51146;50.274;19.000;2022-09-21T03:11:18;15.43;;;12.90;;
64716;SDS011;51146;50.274;19.000;2022-09-21T03:13:45;12.40;;;10.63;;
64716;SDS011;51146;50.274;19.000;2022-09-21T03:16:12;12.07;;;10.23;;
64716;SDS011;51146;50.274;19.000;2022-09-21T03:18:39;15.57;;;11.40;;
64716;SDS011;51146;50.274;19.000;2022-09-21T03:21:07;12.98;;;10.93;;
64716;SDS011;51146;50.274;19.000;2022-09-21T03:23:37;13.60;;;10.30;;
64716;SDS011;51146;50.274;19.000;2022-09-21T03:26:04;13.63;;;10.40;;
64716;SDS011;51146;50.274;19.000;2022-09-21T03:28:31;12.55;;;10.13;;
64716;SDS011;51146;50.274;19.000;2022-09-21T03:30:58;12.10;;;9.95;;
64716;SDS011;51146;50.274;19.000;2022-09-21T03:33:26;13.02;;;8.93;;
64716;SDS011;51146;50.274;19.000;2022-09-21T03:35:52;12.55;;;10.20;;
64716;SDS011;51146;50.274;19.000;2022-09-21T03:38:20;13.82;;;9.95;;
64716;SDS011;51146;50.274;19.000;2022-09-21T03:40:47;11.73;;;9.98;;
64716;SDS011;51146;50.274;19.000;2022-09-21T03:43:16;13.48;;;9.48;;
64716;SDS011;51146;50.274;19.000;2022-09-21T03:45:43;14.30;;;9.45;;
64716;SDS011;51146;50.274;19.000;2022-09-21T03:48:11;15.00;;;10.77;;
64716;SDS011;51146;50.274;19.000;2022-09-21T03:50:38;14.07;;;10.45;;
64716;SDS011;51146;50.274;19.000;2022-09-21T03:53:05;14.07;;;10.48;;
64716;SDS011;51146;50.274;19.000;2022-09-21T03:55:33;16.02;;;11.68;;
64716;SDS011;51146;50.274;19.000;2022-09-21T03:58:00;19.13;;;13.43;;
64716;SDS011;51146;50.274;19.000;2022-09-21T04:00:28;21.92;;;13.75;;
64716;SDS011;51146;50.274;19.000;2022-09-21T04:02:55;22.98;;;14.45;;
64716;SDS011;51146;50.274;19.000;2022-09-21T04:05:22;21.15;;;15.50;;
64716;SDS011;51146;50.274;19.000;2022-09-21T04:07:49;24.80;;;16.65;;
64716;SDS011;51146;50.274;19.000;2022-09-21T04:10:16;26.65;;;16.92;;
64716;SDS011;51146;50.274;19.000;2022-09-21T04:12:45;25.02;;;17.17;;
64716;SDS011;51146;50.274;19.000;2022-09-21T04:15:13;24.55;;;16.08;;
64716;SDS011;51146;50.274;19.000;2022-09-21T04:17:43;23.27;;;14.88;;
64716;SDS011;51146;50.274;19.000;2022-09-21T04:20:09;23.45;;;14.68;;
64716;SDS011;51146;50.274;19.000;2022-09-21T04:22:37;22.67;;;14.40;;
64716;SDS011;51146;50.274;19.000;2022-09-21T04:25:08;18.83;;;13.10;;
64716;SDS011;51146;50.274;19.000;2022-09-21T04:27:36;19.65;;;12.07;;
64716;SDS011;51146;50.274;19.000;2022-09-21T04:30:03;16.08;;;11.27;;
64716;SDS011;51146;50.274;19.000;2022-09-21T04:32:31;20.35;;;13.13;;
64716;SDS011;51146;50.274;19.000;2022-09-21T04:34:57;19.83;;;14.23;;
64716;SDS011;51146;50.274;19.000;2022-09-21T04:37:24;19.40;;;14.45;;
64716;SDS011;51146;50.274;19.000;2022-09-21T04:39:51;18.65;;;14.45;;
64716;SDS011;51146;50.274;19.000;2022-09-21T04:42:17;22.10;;;14.82;;
64716;SDS011;51146;50.274;19.000;2022-09-21T04:44:44;25.13;;;15.43;;
64716;SDS011;51146;50.274;19.000;2022-09-21T04:47:11;23.88;;;15.60;;
64716;SDS011;51146;50.274;19.000;2022-09-21T04:49:38;27.05;;;18.20;;
64716;SDS011;51146;50.274;19.000;2022-09-21T04:52:05;23.75;;;15.63;;
64716;SDS011;51146;50.274;19.000;2022-09-21T04:54:32;26.20;;;15.07;;
64716;SDS011;51146;50.274;19.000;2022-09-21T04:57:00;19.45;;;12.82;;
64716;SDS011;51146;50.274;19.000;2022-09-21T04:59:27;20.63;;;13.07;;
64716;SDS011;51146;50.274;19.000;2022-09-21T05:01:53;19.13;;;12.85;;
64716;SDS011;51146;50.274;19.000;2022-09-21T05:04:20;18.73;;;13.13;;
64716;SDS011;51146;50.274;19.000;2022-09-21T05:06:47;19.95;;;14.20;;
64716;SDS011;51146;50.274;19.000;2022-09-21T05:09:13;24.33;;;14.05;;
64716;SDS011;51146;50.274;19.000;2022-09-21T05:11:59;21.42;;;15.00;;
64716;SDS011;51146;50.274;19.000;2022-09-21T05:14:26;27.77;;;16.45;;
64716;SDS011;51146;50.274;19.000;2022-09-21T05:16:52;25.65;;;16.92;;
64716;SDS011;51146;50.274;19.000;2022-09-21T05:19:19;28.17;;;17.13;;
64716;SDS011;51146;50.274;19.000;2022-09-21T05:21:46;25.45;;;16.17;;
64716;SDS011;51146;50.274;19.000;2022-09-21T05:24:13;31.90;;;17.00;;
64716;SDS011;51146;50.274;19.000;2022-09-21T05:26:41;31.63;;;18.42;;
64716;SDS011;51146;50.274;19.000;2022-09-21T05:29:07;29.58;;;16.60;;
64716;SDS011;51146;50.274;19.000;2022-09-21T05:31:37;28.33;;;15.50;;
64716;SDS011;51146;50.274;19.000;2022-09-21T05:39:55;27.73;;;16.95;;
64716;SDS011;51146;50.274;19.000;2022-09-21T05:42:21;25.83;;;16.98;;
64716;SDS011;51146;50.274;19.000;2022-09-21T05:44:48;27.55;;;16.60;;
64716;SDS011;51146;50.274;19.000;2022-09-21T05:53:07;29.25;;;15.95;;
64716;SDS011;51146;50.274;19.000;2022-09-21T05:55:42;25.67;;;14.70;;
64716;SDS011;51146;50.274;19.000;2022-09-21T05:58:13;27.73;;;15.32;;
64716;SDS011;51146;50.274;19.000;2022-09-21T06:03:40;27.55;;;17.65;;
64716;SDS011;51146;50.274;19.000;2022-09-21T06:06:08;28.40;;;14.88;;
64716;SDS011;51146;50.274;19.000;2022-09-21T06:08:35;29.75;;;16.38;;
64716;SDS011;51146;50.274;19.000;2022-09-21T06:11:02;27.75;;;15.48;;
64716;SDS011;51146;50.274;19.000;2022-09-21T06:13:29;28.13;;;16.42;;
64716;SDS011;51146;50.274;19.000;2022-09-21T06:15:56;27.67;;;16.00;;
64716;SDS011;51146;50.274;19.000;2022-09-21T06:18:26;24.67;;;14.52;;
64716;SDS011;51146;50.274;19.000;2022-09-21T06:20:53;31.00;;;16.75;;
64716;SDS011;51146;50.274;19.000;2022-09-21T06:23:20;29.83;;;15.68;;
64716;SDS011;51146;50.274;19.000;2022-09-21T06:25:50;26.33;;;15.05;;
64716;SDS011;51146;50.274;19.000;2022-09-21T06:28:23;37.15;;;18.40;;
64716;SDS011;51146;50.274;19.000;2022-09-21T06:30:51;34.92;;;19.05;;
64716;SDS011;51146;50.274;19.000;2022-09-21T06:33:19;35.88;;;18.48;;
64716;SDS011;51146;50.274;19.000;2022-09-21T06:38:19;34.28;;;18.08;;
64716;SDS011;51146;50.274;19.000;2022-09-21T06:40:46;32.60;;;18.90;;
64716;SDS011;51146;50.274;19.000;2022-09-21T06:43:13;34.63;;;18.92;;
64716;SDS011;51146;50.274;19.000;2022-09-21T06:45:40;29.08;;;16.63;;
64716;SDS011;51146;50.274;19.000;2022-09-21T06:48:07;26.33;;;15.98;;
64716;SDS011;51146;50.274;19.000;2022-09-21T06:50:34;32.90;;;15.80;;
64716;SDS011;51146;50.274;19.000;2022-09-21T06:53:01;26.33;;;15.18;;
64716;SDS011;51146;50.274;19.000;2022-09-21T06:55:29;25.20;;;15.32;;
64716;SDS011;51146;50.274;19.000;2022-09-21T06:58:00;25.65;;;13.98;;
64716;SDS011;51146;50.274;19.000;2022-09-21T07:00:29;19.13;;;11.93;;
64716;SDS011;51146;50.274;19.000;2022-09-21T07:02:56;23.98;;;12.95;;
64716;SDS011;51146;50.274;19.000;2022-09-21T07:05:24;19.50;;;12.23;;
64716;SDS011;51146;50.274;19.000;2022-09-21T07:07:55;19.25;;;12.93;;
64716;SDS011;51146;50.274;19.000;2022-09-21T07:10:22;21.98;;;12.57;;
64716;SDS011;51146;50.274;19.000;2022-09-21T07:12:51;19.05;;;11.65;;
64716;SDS011;51146;50.274;19.000;2022-09-21T07:15:17;19.80;;;12.80;;
64716;SDS011;51146;50.274;19.000;2022-09-21T07:17:44;20.95;;;12.73;;
64716;SDS011;51146;50.274;19.000;2022-09-21T07:20:17;22.33;;;12.38;;
64716;SDS011;51146;50.274;19.000;2022-09-21T07:22:44;17.48;;;12.00;;
64716;SDS011;51146;50.274;19.000;2022-09-21T07:25:10;21.27;;;13.25;;
64716;SDS011;51146;50.274;19.000;2022-09-21T07:27:37;19.30;;;12.82;;
64716;SDS011;51146;50.274;19.000;2022-09-21T07:30:04;20.75;;;14.25;;
64716;SDS011;51146;50.274;19.000;2022-09-21T07:32:32;17.27;;;11.50;;
64716;SDS011;51146;50.274;19.000;2022-09-21T07:34:59;20.92;;;11.50;;
64716;SDS011;51146;50.274;19.000;2022-09-21T07:37:26;19.67;;;10.65;;
64716;SDS011;51146;50.274;19.000;2022-09-21T07:39:53;15.15;;;10.20;;
64716;SDS011;51146;50.274;19.000;2022-09-21T07:42:20;14.50;;;10.65;;
64716;SDS011;51146;50.274;19.000;2022-09-21T07:44:48;17.13;;;11.02;;
64716;SDS011;51146;50.274;19.000;2022-09-21T07:47:16;16.67;;;10.93;;
64716;SDS011;51146;50.274;19.000;2022-09-21T07:49:43;18.27;;;11.05;;
64716;SDS011;51146;50.274;19.000;2022-09-21T07:52:12;14.87;;;9.63;;
64716;SDS011;51146;50.274;19.000;2022-09-21T07:54:40;15.73;;;9.80;;
64716;SDS011;51146;50.274;19.000;2022-09-21T07:57:07;13.90;;;9.23;;
64716;SDS011;51146;50.274;19.000;2022-09-21T07:59:53;11.02;;;8.63;;
64716;SDS011;51146;50.274;19.000;2022-09-21T08:02:23;13.90;;;8.93;;
64716;SDS011;51146;50.274;19.000;2022-09-21T08:04:50;13.73;;;9.38;;
64716;SDS011;51146;50.274;19.000;2022-09-21T08:07:17;15.00;;;9.35;;
64716;SDS011;51146;50.274;19.000;2022-09-21T08:09:44;13.65;;;9.45;;
64716;SDS011;51146;50.274;19.000;2022-09-21T08:12:15;13.45;;;9.15;;
64716;SDS011;51146;50.274;19.000;2022-09-21T08:14:46;12.38;;;8.48;;
64716;SDS011;51146;50.274;19.000;2022-09-21T08:17:13;25.35;;;17.88;;
64716;SDS011;51146;50.274;19.000;2022-09-21T08:19:40;12.68;;;8.93;;
64716;SDS011;51146;50.274;19.000;2022-09-21T08:22:07;12.35;;;9.25;;
64716;SDS011;51146;50.274;19.000;2022-09-21T08:24:33;14.35;;;9.40;;
64716;SDS011;51146;50.274;19.000;2022-09-21T08:27:00;13.60;;;9.63;;
64716;SDS011;51146;50.274;19.000;2022-09-21T08:29:27;14.45;;;9.63;;
64716;SDS011;51146;50.274;19.000;2022-09-21T08:31:55;14.95;;;10.38;;
64716;SDS011;51146;50.274;19.000;2022-09-21T08:34:21;18.25;;;11.88;;
64716;SDS011;51146;50.274;19.000;2022-09-21T08:36:49;17.35;;;11.02;;
64716;SDS011;51146;50.274;19.000;2022-09-21T08:39:20;16.60;;;11.90;;
64716;SDS011;51146;50.274;19.000;2022-09-21T08:41:59;14.00;;;10.18;;
64716;SDS011;51146;50.274;19.000;2022-09-21T08:44:44;14.80;;;11.40;;
64716;SDS011;51146;50.274;19.000;2022-09-21T08:47:21;17.92;;;11.00;;
64716;SDS011;51146;50.274;19.000;2022-09-21T08:49:59;19.33;;;11.45;;
64716;SDS011;51146;50.274;19.000;2022-09-21T08:52:29;15.23;;;11.50;;
64716;SDS011;51146;50.274;19.000;2022-09-21T08:55:15;13.68;;;10.43;;
64716;SDS011;51146;50.274;19.000;2022-09-21T08:57:43;16.90;;;11.45;;
64716;SDS011;51146;50.274;19.000;2022-09-21T09:00:17;13.82;;;11.05;;
64716;SDS011;51146;50.274;19.000;2022-09-21T09:16:17;14.90;;;9.65;;
64716;SDS011;51146;50.274;19.000;2022-09-21T09:18:59;11.60;;;9.23;;
64716;SDS011;51146;50.274;19.000;2022-09-21T09:21:33;13.50;;;10.27;;
64716;SDS011;51146;50.274;19.000;2022-09-21T09:26:45;13.65;;;10.68;;
64716;SDS011;51146;50.274;19.000;2022-09-21T09:32:14;13.32;;;9.27;;
64716;SDS011;51146;50.274;19.000;2022-09-21T09:34:54;8.90;;;7.27;;
64716;SDS011;51146;50.274;19.000;2022-09-21T09:37:30;11.65;;;7.55;;
64716;SDS011;51146;50.274;19.000;2022-09-21T09:40:02;8.25;;;7.15;;
64716;SDS011;51146;50.274;19.000;2022-09-21T09:42:39;8.20;;;6.25;;
64716;SDS011;51146;50.274;19.000;2022-09-21T09:50:34;9.60;;;5.82;;
64716;SDS011;51146;50.274;19.000;2022-09-21T09:53:11;10.32;;;8.35;;
64716;SDS011;51146;50.274;19.000;2022-09-21T09:55:39;11.25;;;8.30;;
64716;SDS011;51146;50.274;19.000;2022-09-21T09:58:22;10.70;;;8.40;;
64716;SDS011;51146;50.274;19.000;2022-09-21T10:01:02;13.20;;;11.70;;
64716;SDS011;51146;50.274;19.000;2022-09-21T10:03:29;11.40;;;9.45;;
64716;SDS011;51146;50.274;19.000;2022-09-21T10:05:56;9.35;;;8.25;;
64716;SDS011;51146;50.274;19.000;2022-09-21T10:10:53;8.13;;;6.75;;
64716;SDS011;51146;50.274;19.000;2022-09-21T10:16:00;4.47;;;3.78;;
64716;SDS011;51146;50.274;19.000;2022-09-21T10:18:48;4.97;;;4.18;;
64716;SDS011;51146;50.274;19.000;2022-09-21T10:21:20;4.28;;;3.50;;
64716;SDS011;51146;50.274;19.000;2022-09-21T10:26:50;5.18;;;3.58;;
64716;SDS011;51146;50.274;19.000;2022-09-21T10:31:55;6.28;;;3.90;;
64716;SDS011;51146;50.274;19.000;2022-09-21T10:34:32;4.78;;;3.33;;
64716;SDS011;51146;50.274;19.000;2022-09-21T10:37:01;4.25;;;3.55;;
64716;SDS011;51146;50.274;19.000;2022-09-21T10:39:48;4.88;;;3.22;;
64716;SDS011;51146;50.274;19.000;2022-09-21T10:42:16;6.13;;;3.92;;
64716;SDS011;51146;50.274;19.000;2022-09-21T10:44:45;5.30;;;3.83;;
64716;SDS011;51146;50.274;19.000;2022-09-21T10:50:05;6.68;;;3.90;;
64716;SDS011;51146;50.274;19.000;2022-09-21T10:52:48;5.47;;;4.00;;
64716;SDS011;51146;50.274;19.000;2022-09-21T10:55:22;4.55;;;3.58;;
64716;SDS011;51146;50.274;19.000;2022-09-21T10:57:50;6.40;;;3.90;;
64716;SDS011;51146;50.274;19.000;2022-09-21T11:02:51;4.13;;;3.40;;
64716;SDS011;51146;50.274;19.000;2022-09-21T11:05:21;6.90;;;3.72;;
64716;SDS011;51146;50.274;19.000;2022-09-21T11:10:26;5.35;;;3.35;;
64716;SDS011;51146;50.274;19.000;2022-09-21T11:27:11;8.05;;;3.40;;
64716;SDS011;51146;50.274;19.000;2022-09-21T11:54:49;12.02;;;4.38;;
64716;SDS011;51146;50.274;19.000;2022-09-21T12:00:21;16.85;;;5.30;;
64716;SDS011;51146;50.274;19.000;2022-09-21T12:03:11;7.03;;;5.10;;
64716;SDS011;51146;50.274;19.000;2022-09-21T12:16:26;10.02;;;5.68;;
64716;SDS011;51146;50.274;19.000;2022-09-21T12:21:54;9.35;;;5.03;;
64716;SDS011;51146;50.274;19.000;2022-09-21T12:24:33;8.27;;;4.80;;
64716;SDS011;51146;50.274;19.000;2022-09-21T12:30:22;6.53;;;4.70;;
64716;SDS011;51146;50.274;19.000;2022-09-21T12:35:45;9.02;;;5.20;;
64716;SDS011;51146;50.274;19.000;2022-09-21T12:38:21;6.70;;;3.90;;
64716;SDS011;51146;50.274;19.000;2022-09-21T12:46:22;7.93;;;4.80;;
64716;SDS011;51146;50.274;19.000;2022-09-21T12:48:54;9.07;;;5.00;;
64716;SDS011;51146;50.274;19.000;2022-09-21T12:51:32;7.65;;;4.47;;
64716;SDS011;51146;50.274;19.000;2022-09-21T12:54:12;6.43;;;5.00;;
64716;SDS011;51146;50.274;19.000;2022-09-21T12:57:02;7.47;;;4.38;;
64716;SDS011;51146;50.274;19.000;2022-09-21T13:02:42;7.82;;;4.78;;
64716;SDS011;51146;50.274;19.000;2022-09-21T13:05:21;7.00;;;4.38;;
64716;SDS011;51146;50.274;19.000;2022-09-21T13:12:58;8.25;;;3.78;;
64716;SDS011;51146;50.274;19.000;2022-09-21T13:15:29;6.65;;;3.55;;
64716;SDS011;51146;50.274;19.000;2022-09-21T13:17:59;6.25;;;3.60;;
64716;SDS011;51146;50.274;19.000;2022-09-21T13:20:37;17.50;;;4.78;;
64716;SDS011;51146;50.274;19.000;2022-09-21T13:23:05;12.52;;;4.10;;
64716;SDS011;51146;50.274;19.000;2022-09-21T13:25:47;8.73;;;4.85;;
64716;SDS011;51146;50.274;19.000;2022-09-21T13:31:28;5.53;;;3.88;;
64716;SDS011;51146;50.274;19.000;2022-09-21T13:34:06;6.97;;;3.83;;
64716;SDS011;51146;50.274;19.000;2022-09-21T13:36:34;5.97;;;4.00;;
64716;SDS011;51146;50.274;19.000;2022-09-21T13:41:35;6.63;;;3.67;;
64716;SDS011;51146;50.274;19.000;2022-09-21T13:44:42;6.88;;;4.03;;
64716;SDS011;51146;50.274;19.000;2022-09-21T13:47:09;11.15;;;4.15;;
64716;SDS011;51146;50.274;19.000;2022-09-21T13:49:44;7.03;;;3.80;;
64716;SDS011;51146;50.274;19.000;2022-09-21T14:13:38;6.35;;;4.35;;
64716;SDS011;51146;50.274;19.000;2022-09-21T14:19:03;7.43;;;4.47;;
64716;SDS011;51146;50.274;19.000;2022-09-21T14:27:56;8.27;;;4.75;;
64716;SDS011;51146;50.274;19.000;2022-09-21T14:30:21;8.00;;;5.22;;
64716;SDS011;51146;50.274;19.000;2022-09-21T14:35:30;6.32;;;4.72;;
64716;SDS011;51146;50.274;19.000;2022-09-21T14:38:00;7.18;;;5.28;;
64716;SDS011;51146;50.274;19.000;2022-09-21T14:40:36;8.15;;;5.68;;
64716;SDS011;51146;50.274;19.000;2022-09-21T14:43:09;9.38;;;5.57;;
64716;SDS011;51146;50.274;19.000;2022-09-21T14:50:58;10.05;;;5.63;;
64716;SDS011;51146;50.274;19.000;2022-09-21T14:53:45;6.78;;;4.13;;
64716;SDS011;51146;50.274;19.000;2022-09-21T14:56:16;5.07;;;3.45;;
64716;SDS011;51146;50.274;19.000;2022-09-21T15:10:44;6.22;;;2.92;;
64716;SDS011;51146;50.274;19.000;2022-09-21T15:15:58;3.05;;;2.60;;
64716;SDS011;51146;50.274;19.000;2022-09-21T15:18:48;5.03;;;3.22;;
64716;SDS011;51146;50.274;19.000;2022-09-21T15:21:25;5.68;;;3.15;;
64716;SDS011;51146;50.274;19.000;2022-09-21T15:23:54;6.93;;;3.30;;
64716;SDS011;51146;50.274;19.000;2022-09-21T15:26:22;4.93;;;3.63;;
64716;SDS011;51146;50.274;19.000;2022-09-21T15:28:57;5.00;;;3.83;;
64716;SDS011;51146;50.274;19.000;2022-09-21T15:31:39;8.07;;;4.35;;
64716;SDS011;51146;50.274;19.000;2022-09-21T15:34:07;8.93;;;4.80;;
64716;SDS011;51146;50.274;19.000;2022-09-21T15:36:37;6.32;;;4.15;;
64716;SDS011;51146;50.274;19.000;2022-09-21T15:39:05;6.05;;;4.30;;
64716;SDS011;51146;50.274;19.000;2022-09-21T15:41:46;7.00;;;4.53;;
64716;SDS011;51146;50.274;19.000;2022-09-21T15:44:16;8.38;;;4.68;;
64716;SDS011;51146;50.274;19.000;2022-09-21T15:46:47;9.27;;;5.07;;
64716;SDS011;51146;50.274;19.000;2022-09-21T15:49:17;6.38;;;4.25;;
64716;SDS011;51146;50.274;19.000;2022-09-21T15:51:49;9.55;;;4.68;;
64716;SDS011;51146;50.274;19.000;2022-09-21T15:54:38;11.50;;;5.10;;
64716;SDS011;51146;50.274;19.000;2022-09-21T15:57:53;8.82;;;4.72;;
64716;SDS011;51146;50.274;19.000;2022-09-21T16:00:16;9.63;;;4.55;;
64716;SDS011;51146;50.274;19.000;2022-09-21T16:02:54;10.23;;;5.25;;
64716;SDS011;51146;50.274;19.000;2022-09-21T16:05:24;11.52;;;5.43;;
64716;SDS011;51146;50.274;19.000;2022-09-21T16:08:02;9.52;;;5.50;;
64716;SDS011;51146;50.274;19.000;2022-09-21T16:10:42;7.32;;;5.03;;
64716;SDS011;51146;50.274;19.000;2022-09-21T16:18:39;8.65;;;6.55;;
64716;SDS011;51146;50.274;19.000;2022-09-21T16:21:28;10.38;;;6.50;;
64716;SDS011;51146;50.274;19.000;2022-09-21T16:24:16;8.95;;;6.93;;
64716;SDS011;51146;50.274;19.000;2022-09-21T16:26:57;13.45;;;9.40;;
64716;SDS011;51146;50.274;19.000;2022-09-21T16:29:38;17.15;;;10.13;;
64716;SDS011;51146;50.274;19.000;2022-09-21T16:34:40;38.08;;;16.88;;
64716;SDS011;51146;50.274;19.000;2022-09-21T16:39:53;23.33;;;14.48;;
64716;SDS011;51146;50.274;19.000;2022-09-21T16:42:21;12.80;;;9.25;;
64716;SDS011;51146;50.274;19.000;2022-09-21T16:44:52;26.13;;;14.00;;
64716;SDS011;51146;50.274;19.000;2022-09-21T16:47:20;20.17;;;12.45;;
64716;SDS011;51146;50.274;19.000;2022-09-21T16:49:55;21.63;;;14.70;;
64716;SDS011;51146;50.274;19.000;2022-09-21T16:52:26;19.10;;;13.10;;
64716;SDS011;51146;50.274;19.000;2022-09-21T16:54:54;39.55;;;23.17;;
64716;SDS011;51146;50.274;19.000;2022-09-21T16:57:22;18.50;;;12.23;;
64716;SDS011;51146;50.274;19.000;2022-09-21T16:59:50;42.05;;;37.47;;
64716;SDS011;51146;50.274;19.000;2022-09-21T17:02:19;35.35;;;22.25;;
64716;SDS011;51146;50.274;19.000;2022-09-21T17:04:46;64.65;;;49.95;;
64716;SDS011;51146;50.274;19.000;2022-09-21T17:07:15;55.33;;;36.15;;
64716;SDS011;51146;50.274;19.000;2022-09-21T17:09:44;295.50;;;160.95;;
64716;SDS011;51146;50.274;19.000;2022-09-21T17:12:14;686.30;;;412.85;;
64716;SDS011;51146;50.274;19.000;2022-09-21T17:14:43;617.22;;;356.92;;
64716;SDS011;51146;50.274;19.000;2022-09-21T17:17:19;409.05;;;225.40;;
64716;SDS011;51146;50.274;19.000;2022-09-21T17:19:48;215.02;;;111.35;;
64716;SDS011;51146;50.274;19.000;2022-09-21T17:22:18;491.40;;;259.13;;
64716;SDS011;51146;50.274;19.000;2022-09-21T17:24:46;689.33;;;396.25;;
64716;SDS011;51146;50.274;19.000;2022-09-21T17:27:21;665.25;;;367.00;;
64716;SDS011;51146;50.274;19.000;2022-09-21T17:29:51;668.75;;;354.45;;
64716;SDS011;51146;50.274;19.000;2022-09-21T17:32:21;385.52;;;175.25;;
64716;SDS011;51146;50.274;19.000;2022-09-21T17:34:53;579.20;;;286.55;;
64716;SDS011;51146;50.274;19.000;2022-09-21T17:37:27;593.38;;;301.92;;
64716;SDS011;51146;50.274;19.000;2022-09-21T17:39:54;541.55;;;282.35;;
64716;SDS011;51146;50.274;19.000;2022-09-21T17:42:21;374.58;;;181.15;;
64716;SDS011;51146;50.274;19.000;2022-09-21T17:47:28;63.10;;;36.00;;
64716;SDS011;51146;50.274;19.000;2022-09-21T17:52:39;112.30;;;71.30;;
64716;SDS011;51146;50.274;19.000;2022-09-21T17:55:26;57.60;;;41.15;;
64716;SDS011;51146;50.274;19.000;2022-09-21T18:00:59;36.45;;;24.33;;
64716;SDS011;51146;50.274;19.000;2022-09-21T18:03:31;116.07;;;83.53;;
64716;SDS011;51146;50.274;19.000;2022-09-21T18:06:01;103.90;;;64.00;;
64716;SDS011;51146;50.274;19.000;2022-09-21T18:08:28;54.22;;;36.47;;
64716;SDS011;51146;50.274;19.000;2022-09-21T18:11:05;49.88;;;36.08;;
64716;SDS011;51146;50.274;19.000;2022-09-21T18:16:45;45.47;;;36.58;;
64716;SDS011;51146;50.274;19.000;2022-09-21T18:25:11;40.58;;;26.77;;
64716;SDS011;51146;50.274;19.000;2022-09-21T18:27:41;38.00;;;26.50;;
64716;SDS011;51146;50.274;19.000;2022-09-21T18:30:13;38.15;;;23.75;;
64716;SDS011;51146;50.274;19.000;2022-09-21T18:32:55;39.80;;;23.52;;
64716;SDS011;51146;50.274;19.000;2022-09-21T18:35:37;34.03;;;21.02;;
64716;SDS011;51146;50.274;19.000;2022-09-21T18:49:19;35.80;;;22.85;;
64716;SDS011;51146;50.274;19.000;2022-09-21T18:54:45;69.03;;;40.25;;